createdAt,value
2018-09-21T00:00:05.445Z,8.95
2018-09-21T00:02:32.939Z,8.58
2018-09-21T00:05:00.954Z,8.30
2018-09-21T00:07:28.466Z,8.20
2018-09-21T00:09:56.072Z,8.43
2018-09-21T00:12:23.651Z,9.20
2018-09-21T00:14:51.234Z,8.83
2018-09-21T00:17:18.723Z,10.00
2018-09-21T00:19:46.318Z,8.45
2018-09-21T00:22:13.856Z,8.78
2018-09-21T00:24:41.367Z,8.98
2018-09-21T00:27:08.950Z,8.65
2018-09-21T00:29:36.440Z,9.63
2018-09-21T00:32:04.050Z,8.93
2018-09-21T00:34:31.553Z,8.85
2018-09-21T00:36:59.114Z,8.83
2018-09-21T00:39:26.624Z,8.38
2018-09-21T00:41:54.199Z,9.45
2018-09-21T00:44:21.699Z,9.65
2018-09-21T00:46:49.291Z,10.20
2018-09-21T00:49:16.866Z,10.03
2018-09-21T00:51:44.498Z,9.75
2018-09-21T00:54:11.974Z,9.45
2018-09-21T00:56:39.582Z,9.05
2018-09-21T00:59:07.064Z,9.93
2018-09-21T01:01:34.592Z,9.70
2018-09-21T01:04:02.177Z,10.60
2018-09-21T01:06:29.737Z,10.30
2018-09-21T01:08:57.333Z,10.55
2018-09-21T01:11:24.823Z,10.48
2018-09-21T01:13:52.406Z,11.25
2018-09-21T01:16:19.905Z,11.12
2018-09-21T01:18:47.444Z,11.50
2018-09-21T01:21:14.935Z,11.08
2018-09-21T01:23:42.552Z,11.08
2018-09-21T01:26:10.099Z,10.85
2018-09-21T01:28:37.697Z,11.18
2018-09-21T01:31:05.390Z,9.78
2018-09-21T01:33:32.939Z,10.25
2018-09-21T01:36:00.857Z,10.90
2018-09-21T01:38:28.440Z,10.58
2018-09-21T01:40:55.944Z,10.50
2018-09-21T01:43:23.494Z,10.28
2018-09-21T01:45:50.978Z,9.68
2018-09-21T01:48:18.561Z,10.53
2018-09-21T01:50:46.047Z,9.70
2018-09-21T01:53:13.600Z,9.75
2018-09-21T01:55:41.107Z,9.83
2018-09-21T01:58:08.674Z,9.85
2018-09-21T02:00:36.132Z,9.85
2018-09-21T02:03:03.675Z,9.63
2018-09-21T02:05:31.398Z,9.58
2018-09-21T02:07:58.883Z,10.68
2018-09-21T02:10:26.472Z,9.78
2018-09-21T02:12:54.061Z,9.43
2018-09-21T02:15:21.526Z,9.78
2018-09-21T02:17:49.081Z,11.12
2018-09-21T02:20:16.578Z,9.80
2018-09-21T02:22:44.070Z,9.53
2018-09-21T02:25:11.605Z,9.88
2018-09-21T02:27:39.178Z,9.23
2018-09-21T02:30:06.807Z,9.40
2018-09-21T02:32:34.880Z,8.73
2018-09-21T02:35:02.466Z,10.05
2018-09-21T02:37:29.962Z,9.40
2018-09-21T02:39:57.543Z,9.18
2018-09-21T02:42:26.050Z,9.25
2018-09-21T02:44:53.623Z,10.03
2018-09-21T02:47:21.109Z,9.75
2018-09-21T02:49:48.595Z,9.88
2018-09-21T02:52:16.136Z,9.65
2018-09-21T02:54:43.622Z,9.33
2018-09-21T02:57:11.238Z,10.05
2018-09-21T02:59:38.727Z,9.78
2018-09-21T03:02:06.272Z,9.20
2018-09-21T03:04:38.345Z,10.00
2018-09-21T03:07:05.929Z,9.90
2018-09-21T03:09:33.415Z,10.38
2018-09-21T03:12:00.989Z,9.58
2018-09-21T03:14:28.494Z,10.20
2018-09-21T03:16:56.060Z,10.48
2018-09-21T03:19:23.555Z,10.35
2018-09-21T03:21:51.104Z,10.65
2018-09-21T03:24:18.666Z,11.10
2018-09-21T03:26:46.161Z,10.50
2018-09-21T03:29:13.721Z,10.85
2018-09-21T03:31:41.246Z,10.48
2018-09-21T03:34:08.825Z,10.08
2018-09-21T03:36:36.296Z,11.70
2018-09-21T03:39:06.319Z,11.00
2018-09-21T03:41:33.803Z,11.38
2018-09-21T03:44:01.396Z,11.25
2018-09-21T03:46:28.894Z,10.85
2018-09-21T03:48:56.474Z,10.80
2018-09-21T03:51:23.969Z,10.93
2018-09-21T03:53:51.547Z,11.70
2018-09-21T03:56:19.014Z,12.98
2018-09-21T03:58:46.756Z,11.50
2018-09-21T04:01:14.367Z,11.25
2018-09-21T04:03:41.897Z,11.35
2018-09-21T04:06:09.456Z,11.12
2018-09-21T04:08:37.014Z,11.93
2018-09-21T04:11:04.686Z,11.70
2018-09-21T04:13:32.245Z,10.72
2018-09-21T04:15:59.794Z,11.05
2018-09-21T04:18:27.278Z,10.90
2018-09-21T04:20:54.861Z,11.33
2018-09-21T04:23:22.408Z,10.25
2018-09-21T04:25:49.982Z,11.55
2018-09-21T04:28:17.542Z,11.12
2018-09-21T04:30:45.125Z,10.60
2018-09-21T04:33:12.606Z,10.70
2018-09-21T04:35:40.169Z,10.53
2018-09-21T04:38:07.654Z,10.20
2018-09-21T04:40:35.267Z,10.85
2018-09-21T04:43:02.866Z,10.88
2018-09-21T04:45:30.406Z,10.72
2018-09-21T04:47:57.954Z,10.85
2018-09-21T04:50:25.518Z,10.58
2018-09-21T04:52:53.035Z,10.53
2018-09-21T04:55:20.530Z,10.00
2018-09-21T04:57:48.140Z,9.68
2018-09-21T05:00:15.631Z,10.03
2018-09-21T05:02:43.219Z,10.58
2018-09-21T05:05:10.747Z,10.78
2018-09-21T05:07:38.325Z,9.80
2018-09-21T05:10:05.842Z,9.75
2018-09-21T05:12:33.444Z,8.85
2018-09-21T05:15:00.938Z,9.95
2018-09-21T05:17:28.542Z,9.68
2018-09-21T05:19:56.054Z,9.80
2018-09-21T05:22:23.601Z,9.25
2018-09-21T05:24:51.100Z,9.95
2018-09-21T05:27:18.654Z,9.58
2018-09-21T05:29:46.147Z,10.00
2018-09-21T05:32:13.741Z,10.35
2018-09-21T05:34:41.408Z,9.48
2018-09-21T05:37:08.853Z,9.23
2018-09-21T05:39:36.471Z,9.40
2018-09-21T05:42:04.055Z,8.73
2018-09-21T05:44:31.657Z,9.90
2018-09-21T05:46:59.266Z,9.60
2018-09-21T05:49:26.776Z,9.73
2018-09-21T05:51:54.329Z,10.25
2018-09-21T05:54:21.855Z,9.53
2018-09-21T05:56:49.362Z,9.63
2018-09-21T05:59:17.522Z,8.40
2018-09-21T06:01:45.152Z,8.65
2018-09-21T06:04:12.746Z,9.85
2018-09-21T06:06:40.491Z,8.90
2018-09-21T06:09:10.258Z,9.60
2018-09-21T06:11:37.905Z,8.75
2018-09-21T06:14:05.663Z,8.83
2018-09-21T06:16:33.205Z,9.43
2018-09-21T06:19:00.865Z,9.33
2018-09-21T06:21:28.433Z,9.40
2018-09-21T06:23:55.995Z,8.83
2018-09-21T06:26:23.511Z,8.05
2018-09-21T06:28:51.133Z,9.00
2018-09-21T06:31:19.190Z,9.75
2018-09-21T06:33:46.837Z,8.75
2018-09-21T06:36:14.402Z,7.67
2018-09-21T06:38:41.930Z,8.90
2018-09-21T06:41:09.566Z,8.25
2018-09-21T06:43:37.035Z,8.85
2018-09-21T06:46:04.688Z,8.28
2018-09-21T06:48:32.232Z,7.97
2018-09-21T06:50:59.786Z,8.00
2018-09-21T06:53:27.290Z,8.45
2018-09-21T06:55:54.907Z,7.85
2018-09-21T06:58:22.431Z,7.85
2018-09-21T07:00:49.916Z,8.48
2018-09-21T07:03:17.498Z,8.38
2018-09-21T07:05:45.173Z,7.60
2018-09-21T07:08:12.802Z,7.78
2018-09-21T07:10:40.423Z,8.15
2018-09-21T07:13:08.000Z,7.65
2018-09-21T07:15:35.514Z,7.72
2018-09-21T07:18:03.097Z,7.47
2018-09-21T07:20:30.586Z,8.28
2018-09-21T07:22:58.183Z,7.30
2018-09-21T07:25:25.725Z,7.40
2018-09-21T07:27:53.305Z,7.37
2018-09-21T07:30:20.866Z,7.83
2018-09-21T07:32:48.527Z,7.37
2018-09-21T07:35:16.075Z,7.90
2018-09-21T07:37:43.690Z,7.35
2018-09-21T07:40:11.317Z,7.10
2018-09-21T07:42:38.914Z,7.50
2018-09-21T07:45:06.441Z,7.23
2018-09-21T07:47:34.015Z,6.60
2018-09-21T07:50:01.572Z,6.53
2018-09-21T07:52:29.234Z,6.90
2018-09-21T07:54:56.790Z,6.80
2018-09-21T07:57:24.445Z,6.27
2018-09-21T07:59:51.962Z,7.37
2018-09-21T08:02:19.461Z,6.87
2018-09-21T08:04:47.121Z,6.27
2018-09-21T08:07:14.761Z,6.00
2018-09-21T08:09:42.378Z,6.37
2018-09-21T08:12:09.969Z,7.30
2018-09-21T08:14:37.537Z,7.10
2018-09-21T08:17:05.308Z,5.87
2018-09-21T08:19:32.944Z,6.10
2018-09-21T08:22:00.462Z,6.50
2018-09-21T08:24:28.037Z,7.30
2018-09-21T08:26:55.635Z,6.70
2018-09-21T08:29:23.246Z,6.73
2018-09-21T08:31:50.757Z,6.23
2018-09-21T08:34:18.460Z,7.43
2018-09-21T08:36:45.982Z,6.70
2018-09-21T08:39:13.564Z,6.30
2018-09-21T08:41:41.419Z,6.60
2018-09-21T08:44:09.542Z,6.67
2018-09-21T08:46:37.117Z,7.47
2018-09-21T08:49:04.858Z,6.67
2018-09-21T08:51:32.579Z,6.70
2018-09-21T08:54:00.075Z,6.60
2018-09-21T08:56:27.899Z,6.40
2018-09-21T08:58:55.417Z,6.80
2018-09-21T09:01:23.073Z,6.57
2018-09-21T09:03:50.623Z,7.30
2018-09-21T09:06:18.282Z,5.97
2018-09-21T09:08:45.843Z,7.90
2018-09-21T09:11:13.478Z,7.53
2018-09-21T09:13:41.042Z,7.00
2018-09-21T09:16:08.695Z,6.00
2018-09-21T09:18:36.173Z,6.80
2018-09-21T09:21:03.791Z,6.60
2018-09-21T09:23:31.347Z,6.17
2018-09-21T09:25:58.988Z,7.57
2018-09-21T09:28:26.529Z,7.40
2018-09-21T09:30:54.177Z,7.67
2018-09-21T09:33:21.717Z,7.00
2018-09-21T09:35:49.307Z,8.00
2018-09-21T09:38:16.848Z,8.40
2018-09-21T09:40:44.469Z,6.47
2018-09-21T09:43:12.020Z,6.57
2018-09-21T09:45:39.611Z,6.50
2018-09-21T09:48:07.174Z,6.80
2018-09-21T09:50:34.779Z,6.40
2018-09-21T09:53:02.329Z,6.17
2018-09-21T09:55:29.853Z,6.30
2018-09-21T09:57:57.446Z,6.50
2018-09-21T10:00:30.567Z,6.43
2018-09-21T10:02:58.779Z,5.67
2018-09-21T10:05:26.366Z,6.70
2018-09-21T10:07:54.075Z,7.27
2018-09-21T10:10:21.745Z,6.73
2018-09-21T10:12:49.314Z,7.23
2018-09-21T10:15:17.265Z,6.10
2018-09-21T10:17:44.861Z,7.50
2018-09-21T10:20:12.375Z,6.83
2018-09-21T10:22:39.973Z,6.60
2018-09-21T10:25:07.482Z,7.00
2018-09-21T10:27:35.286Z,7.50
2018-09-21T10:30:02.752Z,7.00
2018-09-21T10:32:30.335Z,6.73
2018-09-21T10:34:57.793Z,6.73
2018-09-21T10:37:25.429Z,6.30
2018-09-21T10:39:53.095Z,6.67
2018-09-21T10:42:20.768Z,7.20
2018-09-21T10:44:48.871Z,6.50
2018-09-21T10:47:16.479Z,6.77
2018-09-21T10:49:43.988Z,6.80
2018-09-21T10:52:11.610Z,6.53
2018-09-21T10:54:39.134Z,7.73
2018-09-21T10:57:06.771Z,6.73
2018-09-21T10:59:34.291Z,7.30
2018-09-21T11:02:02.011Z,6.40
2018-09-21T11:04:29.691Z,6.70
2018-09-21T11:06:57.381Z,6.40
2018-09-21T11:09:24.916Z,6.83
2018-09-21T11:11:52.518Z,6.50
2018-09-21T11:14:20.029Z,6.60
2018-09-21T11:16:47.535Z,6.40
2018-09-21T11:19:15.171Z,6.70
2018-09-21T11:21:42.727Z,6.80
2018-09-21T11:24:10.417Z,5.80
2018-09-21T11:26:37.988Z,6.33
2018-09-21T11:29:05.690Z,6.60
2018-09-21T11:31:33.225Z,6.10
2018-09-21T11:34:00.941Z,7.40
2018-09-21T11:36:28.524Z,6.83
2018-09-21T11:38:56.130Z,6.73
2018-09-21T11:41:23.788Z,6.40
2018-09-21T11:43:51.496Z,7.47
2018-09-21T11:46:19.158Z,7.17
2018-09-21T11:48:46.883Z,7.40
2018-09-21T11:51:15.382Z,5.73
2018-09-21T11:53:43.087Z,8.20
2018-09-21T11:56:10.642Z,7.27
2018-09-21T11:58:38.302Z,6.67
2018-09-21T12:01:06.776Z,6.20
2018-09-21T12:03:34.448Z,6.47
2018-09-21T12:06:04.865Z,8.87
2018-09-21T12:08:32.630Z,6.47
2018-09-21T12:11:00.228Z,5.80
2018-09-21T12:13:27.885Z,6.47
2018-09-21T12:15:56.149Z,6.83
2018-09-21T12:18:23.781Z,8.40
2018-09-21T12:20:51.451Z,6.20
2018-09-21T12:23:19.071Z,6.60
2018-09-21T12:25:47.677Z,6.20
2018-09-21T12:28:15.305Z,6.50
2018-09-21T12:30:42.988Z,7.27
2018-09-21T12:33:10.618Z,6.33
2018-09-21T12:35:38.275Z,6.77
2018-09-21T12:38:06.297Z,6.73
2018-09-21T12:40:34.015Z,6.50
2018-09-21T12:43:01.595Z,6.43
2018-09-21T12:45:29.206Z,6.00
2018-09-21T12:47:56.889Z,6.97
2018-09-21T12:50:24.705Z,7.40
2018-09-21T12:52:52.297Z,6.83
2018-09-21T12:55:19.969Z,6.63
2018-09-21T12:57:47.696Z,6.80
2018-09-21T13:00:15.313Z,6.70
2018-09-21T13:02:43.195Z,6.90
2018-09-21T13:05:10.734Z,6.67
2018-09-21T13:07:38.422Z,7.47
2018-09-21T13:10:06.794Z,6.90
2018-09-21T13:12:34.461Z,7.00
2018-09-21T13:15:02.674Z,6.60
2018-09-21T13:17:30.309Z,6.63
2018-09-21T13:19:58.003Z,7.23
2018-09-21T13:22:25.656Z,6.70
2018-09-21T13:24:53.301Z,6.20
2018-09-21T13:27:20.967Z,6.17
2018-09-21T13:29:48.594Z,6.17
2018-09-21T13:32:16.439Z,6.40
2018-09-21T13:34:43.989Z,6.03
2018-09-21T13:37:11.779Z,6.63
2018-09-21T13:39:40.323Z,6.47
2018-09-21T13:42:07.982Z,6.47
2018-09-21T13:44:35.644Z,6.43
2018-09-21T13:47:03.253Z,6.53
2018-09-21T13:49:30.916Z,6.77
2018-09-21T13:51:58.501Z,6.40
2018-09-21T13:54:26.045Z,7.27
2018-09-21T13:56:53.761Z,6.30
2018-09-21T13:59:21.535Z,6.40
2018-09-21T14:01:49.282Z,6.40
2018-09-21T14:04:16.921Z,6.00
2018-09-21T14:06:44.669Z,6.07
2018-09-21T14:09:12.284Z,6.23
2018-09-21T14:11:39.956Z,6.13
2018-09-21T14:14:07.616Z,7.00
2018-09-21T14:16:35.379Z,6.50
2018-09-21T14:19:03.097Z,6.63
2018-09-21T14:21:30.941Z,6.17
2018-09-21T14:23:58.619Z,6.30
2018-09-21T14:26:26.304Z,5.67
2018-09-21T14:28:53.996Z,6.00
2018-09-21T14:31:21.721Z,6.23
2018-09-21T14:33:49.617Z,6.00
2018-09-21T14:36:17.392Z,4.70
2018-09-21T14:38:45.083Z,4.73
2018-09-21T14:41:12.854Z,5.40
2018-09-21T14:43:40.645Z,4.70
2018-09-21T14:46:08.872Z,5.17
2018-09-21T14:48:36.688Z,4.40
2018-09-21T14:51:04.522Z,4.30
2018-09-21T14:53:32.261Z,5.50
2018-09-21T14:55:59.972Z,3.60
2018-09-21T14:58:27.740Z,4.80
2018-09-21T15:00:55.446Z,3.60
2018-09-21T15:03:23.222Z,5.77
2018-09-21T15:05:51.065Z,4.40
2018-09-21T15:08:18.812Z,4.70
2018-09-21T15:10:46.562Z,3.73
2018-09-21T15:13:14.361Z,4.10
2018-09-21T15:15:42.025Z,3.77
2018-09-21T15:18:09.690Z,3.33
2018-09-21T15:20:37.434Z,4.20
2018-09-21T15:23:05.089Z,4.00
2018-09-21T15:25:32.778Z,4.67
2018-09-21T15:28:00.499Z,6.10
2018-09-21T15:30:28.186Z,5.50
2018-09-21T15:32:55.812Z,5.20
2018-09-21T15:35:24.494Z,4.57
2018-09-21T15:37:52.163Z,3.45
2018-09-21T15:40:19.971Z,4.50
2018-09-21T15:42:47.537Z,3.75
2018-09-21T15:45:15.174Z,4.00
2018-09-21T15:47:42.742Z,2.30
2018-09-21T15:50:10.884Z,2.80
2018-09-21T15:52:38.514Z,2.10
2018-09-21T15:55:06.131Z,1.50
2018-09-21T15:57:33.774Z,2.00
2018-09-21T16:00:01.508Z,2.85
2018-09-21T16:02:29.150Z,2.02
2018-09-21T16:04:57.080Z,2.00
2018-09-21T16:07:24.714Z,2.05
2018-09-21T16:09:52.454Z,2.15
2018-09-21T16:12:20.615Z,1.90
2018-09-21T16:14:48.298Z,2.00
2018-09-21T16:17:16.095Z,1.82
2018-09-21T16:19:43.796Z,1.70
2018-09-21T16:22:11.531Z,2.58
2018-09-21T16:24:39.240Z,1.90
2018-09-21T16:27:07.032Z,2.05
2018-09-21T16:29:34.645Z,1.92
2018-09-21T16:32:02.355Z,2.27
2018-09-21T16:34:30.143Z,1.70
2018-09-21T16:36:57.905Z,1.80
2018-09-21T16:39:25.654Z,1.80
2018-09-21T16:41:53.361Z,2.72
2018-09-21T16:44:21.086Z,2.62
2018-09-21T16:46:48.823Z,2.33
2018-09-21T16:49:16.572Z,1.92
2018-09-21T16:51:44.359Z,1.62
2018-09-21T16:54:11.999Z,1.82
2018-09-21T16:56:39.765Z,2.75
2018-09-21T16:59:07.511Z,2.10
2018-09-21T17:01:36.285Z,2.35
2018-09-21T17:04:03.911Z,2.40
2018-09-21T17:06:31.563Z,2.10
2018-09-21T17:08:59.362Z,2.60
2018-09-21T17:11:27.106Z,2.30
2018-09-21T17:13:54.712Z,2.15
2018-09-21T17:16:22.330Z,2.30
2018-09-21T17:18:50.060Z,2.50
2018-09-21T17:21:17.801Z,2.30
2018-09-21T17:23:45.573Z,2.30
2018-09-21T17:26:13.155Z,2.50
2018-09-21T17:28:40.845Z,2.67
2018-09-21T17:31:08.487Z,2.50
2018-09-21T17:33:36.132Z,2.65
2018-09-21T17:36:03.713Z,2.52
2018-09-21T17:38:31.423Z,2.40
2018-09-21T17:40:59.074Z,2.50
2018-09-21T17:43:26.772Z,2.27
2018-09-21T17:45:54.429Z,2.83
2018-09-21T17:48:22.048Z,3.42
2018-09-21T17:50:49.823Z,2.58
2018-09-21T17:53:17.413Z,2.40
2018-09-21T17:55:45.204Z,2.52
2018-09-21T17:58:12.859Z,2.65
2018-09-21T18:00:40.610Z,2.65
2018-09-21T18:03:08.286Z,3.60
2018-09-21T18:05:36.082Z,3.42
2018-09-21T18:11:00.976Z,2.55
2018-09-21T18:13:31.634Z,3.10
2018-09-21T18:16:07.923Z,3.62
2018-09-21T18:18:44.635Z,2.77
2018-09-21T18:21:18.091Z,3.00
2018-09-21T18:23:47.907Z,2.42
2018-09-21T18:26:19.192Z,2.37
2018-09-21T18:28:51.711Z,2.77
2018-09-21T18:31:25.686Z,3.42
2018-09-21T18:33:53.248Z,2.52
2018-09-21T18:36:20.969Z,2.50
2018-09-21T18:38:48.571Z,2.98
2018-09-21T18:41:16.118Z,3.00
2018-09-21T18:43:43.820Z,2.30
2018-09-21T18:46:11.437Z,2.22
2018-09-21T18:48:39.147Z,2.62
2018-09-21T18:51:06.786Z,3.30
2018-09-21T18:53:34.473Z,2.70
2018-09-21T18:56:02.390Z,3.05
2018-09-21T18:58:30.388Z,2.20
2018-09-21T19:00:58.027Z,2.50
2018-09-21T19:03:25.680Z,2.67
2018-09-21T19:05:53.484Z,3.10
2018-09-21T19:08:21.219Z,2.30
2018-09-21T19:10:48.837Z,2.58
2018-09-21T19:13:16.698Z,2.60
2018-09-21T19:15:44.801Z,3.70
2018-09-21T19:18:12.835Z,3.12
2018-09-21T19:20:40.780Z,3.08
2018-09-21T19:23:08.917Z,2.95
2018-09-21T19:25:36.807Z,2.65
2018-09-21T19:28:04.839Z,3.00
2018-09-21T19:30:32.865Z,2.90
2018-09-21T19:33:01.416Z,2.37
2018-09-21T19:35:29.159Z,2.10
2018-09-21T19:37:57.139Z,2.65
2018-09-21T19:40:25.021Z,2.60
2018-09-21T19:42:52.885Z,2.67
2018-09-21T19:45:20.633Z,2.77
2018-09-21T19:47:48.094Z,3.00
2018-09-21T19:50:15.768Z,2.65
2018-09-21T19:52:43.366Z,2.83
2018-09-21T19:55:11.023Z,2.85
2018-09-21T19:57:38.612Z,2.90
2018-09-21T20:00:06.561Z,2.77
2018-09-21T20:02:34.142Z,3.20
2018-09-21T20:05:02.256Z,3.17
2018-09-21T20:07:29.873Z,3.20
2018-09-21T20:09:57.550Z,2.60
2018-09-21T20:12:25.153Z,2.65
2018-09-21T20:14:52.710Z,3.33
2018-09-21T20:17:20.367Z,2.17
2018-09-21T20:19:47.946Z,1.85
2018-09-21T20:22:15.670Z,2.65
2018-09-21T20:24:43.214Z,2.47
2018-09-21T20:27:10.896Z,2.62
2018-09-21T20:29:38.637Z,3.50
2018-09-21T20:32:12.096Z,2.55
2018-09-21T20:34:39.751Z,2.40
2018-09-21T20:37:07.495Z,2.20
2018-09-21T20:39:35.031Z,2.45
2018-09-21T20:42:02.743Z,1.87
2018-09-21T20:44:30.326Z,2.70
2018-09-21T20:46:57.934Z,2.80
2018-09-21T20:49:25.516Z,2.87
2018-09-21T20:51:53.243Z,2.60
2018-09-21T20:54:20.746Z,2.60
2018-09-21T20:56:48.375Z,2.80
2018-09-21T20:59:15.954Z,2.22
2018-09-21T21:01:43.498Z,2.22
2018-09-21T21:04:11.142Z,2.10
2018-09-21T21:06:38.759Z,2.90
2018-09-21T21:09:07.610Z,2.87
2018-09-21T21:11:35.154Z,2.92
2018-09-21T21:14:02.746Z,2.40
2018-09-21T21:16:30.338Z,2.35
2018-09-21T21:18:57.979Z,2.42
2018-09-21T21:21:25.562Z,2.15
2018-09-21T21:23:53.194Z,2.12
2018-09-21T21:26:20.837Z,2.37
2018-09-21T21:28:48.679Z,2.77
2018-09-21T21:31:16.395Z,2.50
2018-09-21T21:33:43.984Z,2.72
2018-09-21T21:36:11.641Z,2.42
2018-09-21T21:38:39.342Z,2.42
2018-09-21T21:41:07.030Z,2.58
2018-09-21T21:43:34.625Z,1.60
2018-09-21T21:46:02.295Z,2.90
2018-09-21T21:48:29.821Z,2.75
2018-09-21T21:50:57.440Z,2.40
2018-09-21T21:53:24.999Z,3.00
2018-09-21T21:55:52.538Z,2.45
2018-09-21T21:58:20.141Z,2.70
2018-09-21T22:00:53.469Z,2.50
2018-09-21T22:03:21.125Z,2.58
2018-09-21T22:05:48.842Z,2.40
2018-09-21T22:08:16.614Z,2.20
2018-09-21T22:10:44.247Z,2.12
2018-09-21T22:13:17.350Z,2.22
2018-09-21T22:15:44.996Z,2.50
2018-09-21T22:18:12.627Z,2.40
2018-09-21T22:20:40.203Z,2.95
2018-09-21T22:23:07.806Z,2.75
2018-09-21T22:25:35.345Z,2.47
2018-09-21T22:28:02.938Z,2.45
2018-09-21T22:30:30.450Z,2.70
2018-09-21T22:32:58.037Z,2.77
2018-09-21T22:35:25.605Z,2.35
2018-09-21T22:37:53.257Z,2.35
2018-09-21T22:40:20.789Z,1.90
2018-09-21T22:42:48.362Z,2.70
2018-09-21T22:45:15.904Z,2.40
2018-09-21T22:47:43.541Z,2.33
2018-09-21T22:50:11.113Z,2.40
2018-09-21T22:52:38.652Z,2.80
2018-09-21T22:55:06.337Z,2.70
2018-09-21T22:57:33.855Z,2.62
2018-09-21T23:00:01.552Z,2.90
2018-09-21T23:02:29.092Z,2.05
2018-09-21T23:04:56.771Z,2.15
2018-09-21T23:07:24.282Z,2.02
2018-09-21T23:09:51.908Z,2.37
2018-09-21T23:12:19.464Z,2.20
2018-09-21T23:14:46.983Z,2.30
2018-09-21T23:17:14.576Z,2.98
2018-09-21T23:19:42.201Z,2.58
2018-09-21T23:22:09.691Z,2.60
2018-09-21T23:24:37.307Z,3.35
2018-09-21T23:27:04.909Z,2.45
2018-09-21T23:29:32.441Z,2.30
2018-09-21T23:32:00.058Z,2.70
2018-09-21T23:34:27.630Z,2.50
2018-09-21T23:36:55.227Z,3.10
2018-09-21T23:39:22.743Z,2.50
2018-09-21T23:41:50.369Z,2.75
2018-09-21T23:44:17.917Z,2.55
2018-09-21T23:46:45.499Z,2.45
2018-09-21T23:49:13.010Z,2.90
2018-09-21T23:51:40.551Z,2.50
2018-09-21T23:54:08.071Z,3.15
2018-09-21T23:56:35.669Z,2.30
2018-09-21T23:59:03.221Z,3.22
